KMNE

Minden Airport

Minden, Louisiana, USA
METAR KMNE 181955Z AUTO 00000KT 5SM BR OVC003 12/12 A3019 RMK AO2 T01210115
Observed Flight Rules
Dec-18 @ 19:55 UTC (26 minutes ago) Instrument Flight Rules
Wind Visibility Clouds Conditions
Calm 5 miles
  • Overcast at 300' AGL
  • Mist
Temperatures Readings
Current 12°C / 54°F
Dewpoint 12°C / 54°F
Humidity 100%
Altimeter 30.19" Hg
Pressure 1022 hPa
Elevation 85
METAR KMNE 181955Z AUTO 00000KT 5SM BR OVC003 12/12 A3019 RMK AO2 T01210115
Observed Flight Rules
Dec-18 @ 19:55 UTC
(26 minutes ago)
LIFR
Wind Visibility
Calm 5 miles
Clouds
  • Overcast at 300' AGL
Conditions
  • Mist
Temperature Dewpoint
12°C / 54°F 12°C / 54°F
Humidity Altimeter Pressure
100% 30.19" Hg 1022 hPa